createdAt,value
2017-11-11T00:00:21.239Z,94.50
2017-11-11T00:02:49.526Z,94.90
2017-11-11T00:05:17.813Z,94.60
2017-11-11T00:07:46.063Z,94.70
2017-11-11T00:10:14.370Z,94.80
2017-11-11T00:12:42.646Z,94.90
2017-11-11T00:15:10.903Z,95.10
2017-11-11T00:17:39.144Z,95.10
2017-11-11T00:20:07.410Z,95.20
2017-11-11T00:22:35.657Z,95.40
2017-11-11T00:25:03.951Z,95.40
2017-11-11T00:27:32.192Z,95.60
2017-11-11T00:30:01.219Z,95.70
2017-11-11T00:32:29.546Z,95.70
2017-11-11T00:34:57.898Z,95.60
2017-11-11T00:37:26.174Z,95.60
2017-11-11T00:39:54.421Z,95.80
2017-11-11T00:42:23.439Z,96.20
2017-11-11T00:44:51.684Z,96.20
2017-11-11T00:47:20.704Z,96.50
2017-11-11T00:49:49.018Z,96.20
2017-11-11T00:52:17.271Z,96.10
2017-11-11T00:54:45.582Z,96.00
2017-11-11T00:57:13.837Z,96.10
2017-11-11T00:59:42.078Z,96.70
2017-11-11T01:02:10.344Z,96.20
2017-11-11T01:04:38.588Z,96.30
2017-11-11T01:07:06.836Z,96.30
2017-11-11T01:09:35.872Z,96.40
2017-11-11T01:12:04.133Z,96.40
2017-11-11T01:14:32.397Z,96.30
2017-11-11T01:17:01.423Z,96.50
2017-11-11T01:19:29.657Z,96.50
2017-11-11T01:21:57.911Z,96.60
2017-11-11T01:24:26.166Z,96.90
2017-11-11T01:26:54.427Z,96.80
2017-11-11T01:29:22.674Z,97.00
2017-11-11T01:31:50.936Z,97.00
2017-11-11T01:34:19.180Z,97.20
2017-11-11T01:36:47.436Z,97.10
2017-11-11T01:39:16.480Z,97.40
2017-11-11T01:41:44.726Z,97.40
2017-11-11T01:44:12.972Z,97.40
2017-11-11T01:46:41.232Z,97.60
2017-11-11T01:49:09.484Z,98.00
2017-11-11T01:51:37.738Z,97.90
2017-11-11T01:54:06.735Z,97.90
2017-11-11T01:56:35.755Z,97.90
2017-11-11T01:59:03.999Z,97.90
2017-11-11T02:01:32.247Z,97.90
2017-11-11T02:04:00.500Z,97.90
2017-11-11T02:06:28.767Z,98.00
2017-11-11T02:08:57.012Z,98.10
2017-11-11T02:11:25.255Z,98.10
2017-11-11T02:13:53.876Z,98.00
2017-11-11T02:16:22.220Z,98.00
2017-11-11T02:18:50.492Z,98.30
2017-11-11T02:21:18.752Z,98.20
2017-11-11T02:23:47.068Z,98.30
2017-11-11T02:26:15.323Z,98.30
2017-11-11T02:28:44.442Z,98.50
2017-11-11T02:31:12.714Z,98.30
2017-11-11T02:33:40.947Z,98.30
2017-11-11T02:36:09.195Z,98.20
2017-11-11T02:38:37.459Z,98.20
2017-11-11T02:41:05.711Z,98.10
2017-11-11T02:43:33.969Z,98.30
2017-11-11T02:46:02.991Z,98.50
2017-11-11T02:48:31.243Z,98.50
2017-11-11T02:50:59.489Z,98.50
2017-11-11T02:53:27.729Z,98.60
2017-11-11T02:55:55.996Z,98.70
2017-11-11T02:58:25.000Z,98.70
2017-11-11T03:00:54.019Z,98.70
2017-11-11T03:03:22.246Z,98.60
2017-11-11T03:05:50.584Z,98.60
2017-11-11T03:08:18.825Z,98.60
2017-11-11T03:10:48.498Z,98.70
2017-11-11T03:13:16.736Z,98.70
2017-11-11T03:15:45.001Z,98.80
2017-11-11T03:18:14.026Z,99.10
2017-11-11T03:20:42.284Z,99.10
2017-11-11T03:23:11.327Z,99.20
2017-11-11T03:25:39.605Z,99.10
2017-11-11T03:28:07.845Z,99.10
2017-11-11T03:30:36.900Z,99.20
2017-11-11T03:33:05.199Z,99.20
2017-11-11T03:35:33.426Z,99.10
2017-11-11T03:38:01.688Z,99.20
2017-11-11T03:40:29.928Z,99.20
2017-11-11T03:42:58.275Z,99.30
2017-11-11T03:45:26.560Z,99.30
2017-11-11T03:47:54.816Z,99.40
2017-11-11T03:50:23.073Z,99.50
2017-11-11T03:52:52.829Z,99.70
2017-11-11T03:55:21.064Z,99.90
2017-11-11T03:57:49.341Z,99.60
2017-11-11T04:00:17.588Z,99.70
2017-11-11T04:02:45.848Z,99.70
2017-11-11T04:05:14.090Z,99.90
2017-11-11T04:07:42.343Z,99.90
2017-11-11T04:10:10.585Z,99.90
2017-11-11T04:12:38.844Z,99.80
2017-11-11T04:15:07.881Z,99.80
2017-11-11T04:17:36.140Z,99.70
2017-11-11T04:20:04.379Z,99.80
2017-11-11T04:22:34.147Z,99.70
2017-11-11T04:25:02.477Z,99.70
2017-11-11T04:27:30.720Z,99.50
2017-11-11T04:29:59.003Z,99.50
2017-11-11T04:32:27.267Z,99.40
2017-11-11T04:34:55.541Z,99.40
2017-11-11T04:37:24.555Z,99.50
2017-11-11T04:39:52.800Z,99.50
2017-11-11T04:42:21.816Z,99.50
2017-11-11T04:44:50.056Z,99.50
2017-11-11T04:47:18.398Z,99.40
2017-11-11T04:49:46.649Z,99.20
2017-11-11T04:52:15.670Z,98.90
2017-11-11T04:54:43.908Z,99.00
2017-11-11T04:57:12.187Z,99.00
2017-11-11T04:59:40.412Z,99.00
2017-11-11T05:02:08.700Z,99.00
2017-11-11T05:04:36.940Z,98.90
2017-11-11T05:07:05.974Z,98.80
2017-11-11T05:09:34.267Z,98.80
2017-11-11T05:12:02.545Z,98.90
2017-11-11T05:14:30.792Z,99.00
2017-11-11T05:16:59.816Z,98.90
2017-11-11T05:19:28.061Z,99.00
2017-11-11T05:21:57.128Z,99.00
2017-11-11T05:24:25.368Z,99.00
2017-11-11T05:26:53.636Z,98.90
2017-11-11T05:29:21.881Z,98.80
2017-11-11T05:31:50.131Z,99.00
2017-11-11T05:34:18.427Z,99.10
2017-11-11T05:36:46.697Z,99.20
2017-11-11T05:39:14.936Z,99.30
2017-11-11T05:41:43.192Z,99.50
2017-11-11T05:44:11.438Z,99.60
2017-11-11T05:46:40.547Z,99.70
2017-11-11T05:49:08.790Z,99.70
2017-11-11T05:51:38.013Z,99.70
2017-11-11T05:54:06.255Z,99.60
2017-11-11T05:56:35.281Z,99.40
2017-11-11T05:59:03.524Z,99.40
2017-11-11T06:01:32.804Z,99.10
2017-11-11T06:04:01.060Z,99.00
2017-11-11T06:06:29.338Z,98.80
2017-11-11T06:08:57.582Z,98.80
2017-11-11T06:11:26.588Z,98.80
2017-11-11T06:13:54.883Z,98.80
2017-11-11T06:16:23.172Z,98.90
2017-11-11T06:18:51.448Z,99.00
2017-11-11T06:21:19.680Z,98.80
2017-11-11T06:23:48.713Z,98.90
2017-11-11T06:26:16.965Z,98.90
2017-11-11T06:28:45.999Z,98.90
2017-11-11T06:31:14.232Z,98.90
2017-11-11T06:33:43.265Z,98.50
2017-11-11T06:36:11.512Z,98.50
2017-11-11T06:38:40.556Z,98.40
2017-11-11T06:41:08.791Z,98.30
2017-11-11T06:43:37.869Z,98.10
2017-11-11T06:46:06.095Z,98.10
2017-11-11T06:48:34.351Z,98.30
2017-11-11T06:51:03.369Z,98.40
2017-11-11T06:53:31.635Z,98.30
2017-11-11T06:56:00.641Z,98.30
2017-11-11T06:58:29.672Z,98.30
2017-11-11T07:00:57.912Z,98.30
2017-11-11T07:03:27.050Z,98.60
2017-11-11T07:05:55.291Z,98.60
2017-11-11T07:08:24.300Z,98.80
2017-11-11T07:10:52.569Z,98.80
2017-11-11T07:13:21.593Z,99.00
2017-11-11T07:15:49.840Z,98.90
2017-11-11T07:18:18.852Z,99.10
2017-11-11T07:20:47.881Z,99.20
2017-11-11T07:23:16.130Z,99.20
2017-11-11T07:25:45.149Z,99.40
2017-11-11T07:28:13.407Z,99.40
2017-11-11T07:30:42.445Z,99.60
2017-11-11T07:33:10.677Z,99.70
2017-11-11T07:35:39.717Z,99.90
2017-11-11T07:38:08.007Z,99.90
2017-11-11T07:40:36.279Z,99.70
2017-11-11T07:43:04.529Z,99.80
2017-11-11T07:45:33.552Z,99.70
2017-11-11T07:48:01.796Z,99.60
2017-11-11T07:50:30.840Z,99.60
2017-11-11T07:52:59.119Z,99.60
2017-11-11T07:55:27.376Z,99.50
2017-11-11T07:57:56.387Z,99.50
2017-11-11T08:00:24.690Z,99.50
2017-11-11T08:02:52.935Z,99.30
2017-11-11T08:05:22.073Z,98.80
2017-11-11T08:07:50.324Z,98.80
2017-11-11T08:10:18.631Z,98.90
2017-11-11T08:12:46.866Z,98.70
2017-11-11T08:15:15.909Z,98.60
2017-11-11T08:17:44.443Z,98.60
2017-11-11T08:20:13.457Z,98.80
2017-11-11T08:22:42.494Z,98.30
2017-11-11T08:25:10.769Z,98.30
2017-11-11T08:27:39.049Z,98.30
2017-11-11T08:30:07.277Z,98.30
2017-11-11T08:32:35.545Z,98.20
2017-11-11T08:35:03.892Z,98.50
2017-11-11T08:37:32.180Z,98.30
2017-11-11T08:40:00.416Z,98.40
2017-11-11T08:42:29.463Z,98.40
2017-11-11T08:44:57.709Z,98.40
2017-11-11T08:47:25.976Z,98.50
2017-11-11T08:49:54.988Z,98.40
2017-11-11T08:52:23.264Z,98.40
2017-11-11T08:54:51.552Z,98.10
2017-11-11T08:57:19.813Z,98.00
2017-11-11T08:59:48.853Z,97.90
2017-11-11T09:02:17.172Z,97.90
2017-11-11T09:04:45.422Z,97.90
2017-11-11T09:07:13.702Z,98.80
2017-11-11T09:09:41.989Z,98.50
2017-11-11T09:12:10.244Z,98.50
2017-11-11T09:14:38.496Z,98.20
2017-11-11T09:17:07.529Z,98.10
2017-11-11T09:19:35.824Z,98.10
2017-11-11T09:22:04.109Z,99.20
2017-11-11T09:24:32.366Z,98.40
2017-11-11T09:27:01.381Z,98.40
2017-11-11T09:29:29.632Z,98.40
2017-11-11T09:31:57.893Z,98.70
2017-11-11T09:34:27.536Z,99.10
2017-11-11T09:36:55.805Z,99.10
2017-11-11T09:39:24.077Z,98.90
2017-11-11T09:41:53.081Z,99.00
2017-11-11T09:44:21.396Z,99.00
2017-11-11T09:46:49.684Z,99.30
2017-11-11T09:49:17.957Z,99.50
2017-11-11T09:51:46.215Z,99.80
2017-11-11T09:54:14.513Z,99.90
2017-11-11T09:56:42.763Z,99.90
2017-11-11T09:59:11.026Z,99.90
2017-11-11T10:01:40.040Z,99.90
2017-11-11T10:04:09.066Z,99.90
2017-11-11T10:06:37.306Z,99.90
2017-11-11T10:09:05.581Z,99.90
2017-11-11T10:11:35.436Z,99.90
2017-11-11T10:14:03.709Z,99.90
2017-11-11T10:16:31.953Z,99.90
2017-11-11T10:19:00.221Z,99.90
2017-11-11T10:21:28.485Z,99.90
2017-11-11T10:23:56.747Z,99.90
2017-11-11T10:26:25.008Z,99.90
2017-11-11T10:28:54.187Z,99.90
2017-11-11T10:31:22.467Z,99.90
2017-11-11T10:33:51.505Z,99.90
2017-11-11T10:36:20.866Z,99.90
2017-11-11T10:38:49.193Z,99.90
2017-11-11T10:41:17.436Z,99.90
2017-11-11T10:43:46.469Z,99.90
2017-11-11T10:46:14.726Z,99.90
2017-11-11T10:48:43.783Z,99.90
2017-11-11T10:51:12.058Z,99.90
2017-11-11T10:53:40.341Z,99.90
2017-11-11T10:56:08.585Z,99.90
2017-11-11T10:58:36.853Z,99.90
2017-11-11T11:01:05.875Z,99.90
2017-11-11T11:03:34.171Z,99.90
2017-11-11T11:06:02.419Z,99.90
2017-11-11T11:08:30.695Z,99.90
2017-11-11T11:10:59.735Z,99.90
2017-11-11T11:13:28.004Z,99.90
2017-11-11T11:15:56.245Z,99.90
2017-11-11T11:18:26.060Z,99.90
2017-11-11T11:20:55.085Z,99.90
2017-11-11T11:23:23.349Z,99.90
2017-11-11T11:25:52.359Z,99.90
2017-11-11T11:28:20.625Z,99.90
2017-11-11T11:30:49.646Z,99.90
2017-11-11T11:33:17.915Z,99.90
2017-11-11T11:35:46.156Z,99.90
2017-11-11T11:38:14.425Z,99.90
2017-11-11T11:40:42.672Z,99.90
2017-11-11T11:43:10.932Z,99.90
2017-11-11T11:45:39.180Z,99.90
2017-11-11T11:48:07.442Z,99.90
2017-11-11T11:50:35.677Z,99.90
2017-11-11T11:53:03.992Z,99.90
2017-11-11T11:55:32.302Z,99.90
2017-11-11T11:58:00.565Z,99.90
2017-11-11T12:00:28.827Z,99.90
2017-11-11T12:02:57.080Z,99.90
2017-11-11T12:05:25.339Z,99.90
2017-11-11T12:07:53.586Z,99.90
2017-11-11T12:10:21.831Z,99.90
2017-11-11T12:12:50.147Z,99.90
2017-11-11T12:15:18.383Z,99.90
2017-11-11T12:17:47.425Z,99.90
2017-11-11T12:20:15.696Z,99.90
2017-11-11T12:22:43.969Z,99.90
2017-11-11T12:25:12.279Z,99.90
2017-11-11T12:27:40.541Z,99.90
2017-11-11T12:30:08.784Z,99.90
2017-11-11T12:32:37.081Z,99.90
2017-11-11T12:35:05.400Z,99.90
2017-11-11T12:37:33.641Z,99.90
2017-11-11T12:40:01.953Z,99.90
2017-11-11T12:42:30.596Z,99.90
2017-11-11T12:44:58.911Z,99.90
2017-11-11T12:47:27.153Z,99.90
2017-11-11T12:49:56.185Z,99.90
2017-11-11T12:52:24.574Z,99.90
2017-11-11T12:54:52.835Z,99.90
2017-11-11T12:57:21.077Z,99.90
2017-11-11T12:59:49.407Z,99.90
2017-11-11T13:02:17.652Z,99.90
2017-11-11T13:04:46.707Z,99.90
2017-11-11T13:07:15.036Z,99.90
2017-11-11T13:09:44.069Z,99.90
2017-11-11T13:12:12.312Z,99.90
2017-11-11T13:14:41.347Z,99.90
2017-11-11T13:17:09.611Z,99.90
2017-11-11T13:19:37.879Z,99.90
2017-11-11T13:22:06.890Z,99.90
2017-11-11T13:24:35.160Z,99.90
2017-11-11T13:27:04.182Z,99.90
2017-11-11T13:29:32.439Z,99.90
2017-11-11T13:32:01.450Z,99.90
2017-11-11T13:34:29.727Z,99.90
2017-11-11T13:36:57.977Z,99.90
2017-11-11T13:39:26.251Z,99.90
2017-11-11T13:41:54.480Z,99.90
2017-11-11T13:44:22.731Z,99.90
2017-11-11T13:46:51.745Z,99.90
2017-11-11T13:49:20.010Z,99.90
2017-11-11T13:51:49.768Z,99.90
2017-11-11T13:54:18.028Z,99.90
2017-11-11T13:56:46.275Z,99.90
2017-11-11T13:59:14.525Z,99.90
2017-11-11T14:01:42.775Z,99.90
2017-11-11T14:04:11.032Z,99.90
2017-11-11T14:06:40.048Z,99.90
2017-11-11T14:09:09.068Z,99.90
2017-11-11T14:11:37.303Z,99.90
2017-11-11T14:14:06.349Z,99.90
2017-11-11T14:16:34.615Z,99.90
2017-11-11T14:19:02.859Z,99.90
2017-11-11T14:21:31.874Z,99.90
2017-11-11T14:24:01.007Z,99.90
2017-11-11T14:26:29.245Z,99.90
2017-11-11T14:28:58.381Z,99.90
2017-11-11T14:31:26.625Z,99.90
2017-11-11T14:33:55.664Z,99.90
2017-11-11T14:36:23.916Z,99.90
2017-11-11T14:38:52.174Z,99.90
2017-11-11T14:41:21.182Z,99.90
2017-11-11T14:43:50.785Z,99.90
2017-11-11T14:46:19.075Z,99.90
2017-11-11T14:48:48.152Z,99.90
2017-11-11T14:51:17.249Z,99.90
2017-11-11T14:53:45.542Z,99.90
2017-11-11T14:56:13.914Z,99.90
2017-11-11T14:58:43.487Z,99.90
2017-11-11T15:01:11.737Z,99.90
2017-11-11T15:03:40.751Z,99.90
2017-11-11T15:06:09.465Z,99.90
2017-11-11T15:08:37.688Z,99.90
2017-11-11T15:11:05.946Z,99.90
2017-11-11T15:13:34.208Z,99.90
2017-11-11T15:16:02.431Z,99.90
2017-11-11T15:18:31.470Z,99.90
2017-11-11T15:20:59.709Z,99.90
2017-11-11T15:23:28.068Z,99.90
2017-11-11T15:25:56.416Z,99.90
2017-11-11T15:28:24.672Z,99.90
2017-11-11T15:30:52.920Z,99.90
2017-11-11T15:33:21.181Z,99.90
2017-11-11T15:35:49.429Z,99.90
2017-11-11T15:38:17.722Z,99.90
2017-11-11T15:40:46.000Z,99.90
2017-11-11T15:43:14.310Z,99.90
2017-11-11T15:45:42.559Z,99.90
2017-11-11T15:48:10.858Z,99.90
2017-11-11T15:50:39.121Z,99.90
2017-11-11T15:53:07.364Z,99.90
2017-11-11T15:55:36.390Z,99.90
2017-11-11T15:58:04.648Z,99.90
2017-11-11T16:00:33.681Z,99.90
2017-11-11T16:03:01.925Z,99.90
2017-11-11T16:05:30.943Z,99.90
2017-11-11T16:07:59.191Z,99.90
2017-11-11T16:10:27.446Z,99.90
2017-11-11T16:12:55.705Z,99.90
2017-11-11T16:15:23.949Z,99.90
2017-11-11T16:17:52.953Z,99.90
2017-11-11T16:20:21.220Z,99.90
2017-11-11T16:22:50.231Z,99.90
2017-11-11T16:25:18.511Z,99.90
2017-11-11T16:27:47.520Z,99.90
2017-11-11T16:30:16.637Z,99.90
2017-11-11T16:32:44.938Z,99.90
2017-11-11T16:35:13.187Z,99.90
2017-11-11T16:37:41.431Z,99.90
2017-11-11T16:40:10.456Z,99.90
2017-11-11T16:42:38.712Z,99.90
2017-11-11T16:45:07.748Z,99.90
2017-11-11T16:47:35.997Z,99.90
2017-11-11T16:50:05.021Z,99.90
2017-11-11T16:52:33.269Z,99.90
2017-11-11T16:55:02.301Z,99.90
2017-11-11T16:57:30.627Z,99.90
2017-11-11T16:59:58.883Z,99.90
2017-11-11T17:02:27.131Z,99.90
2017-11-11T17:04:55.398Z,99.90
2017-11-11T17:07:25.418Z,99.90
2017-11-11T17:09:53.730Z,99.90
2017-11-11T17:12:22.396Z,99.90
2017-11-11T17:14:54.882Z,99.90
2017-11-11T17:17:23.132Z,99.90
2017-11-11T17:19:52.182Z,99.90
2017-11-11T17:22:20.730Z,99.90
2017-11-11T17:24:49.760Z,99.90
2017-11-11T17:27:18.038Z,99.90
2017-11-11T17:29:46.305Z,99.90
2017-11-11T17:32:14.555Z,99.90
2017-11-11T17:34:42.819Z,99.90
2017-11-11T17:37:11.076Z,99.90
2017-11-11T17:39:39.349Z,99.90
2017-11-11T17:42:07.591Z,99.90
2017-11-11T17:44:36.624Z,99.90
2017-11-11T17:47:04.962Z,99.90
2017-11-11T17:49:33.228Z,99.90
2017-11-11T17:52:01.480Z,99.90
2017-11-11T17:54:29.736Z,99.90
2017-11-11T17:56:58.005Z,99.90
2017-11-11T17:59:26.264Z,99.90
2017-11-11T18:01:55.271Z,99.90
2017-11-11T18:04:24.310Z,99.90
2017-11-11T18:06:52.563Z,99.90
2017-11-11T18:09:20.833Z,99.90
2017-11-11T18:11:49.873Z,99.90
2017-11-11T18:14:18.121Z,99.90
2017-11-11T18:16:46.371Z,99.90
2017-11-11T18:19:14.641Z,99.90
2017-11-11T18:21:42.885Z,99.90
2017-11-11T18:24:11.176Z,99.90
2017-11-11T18:26:39.431Z,99.90
2017-11-11T18:29:07.689Z,99.90
2017-11-11T18:31:36.696Z,99.90
2017-11-11T18:34:05.735Z,99.90
2017-11-11T18:36:33.988Z,99.90
2017-11-11T18:39:02.265Z,99.90
2017-11-11T18:41:30.510Z,99.90
2017-11-11T18:43:58.746Z,99.90
2017-11-11T18:46:27.070Z,99.90
2017-11-11T18:48:55.295Z,99.90
2017-11-11T18:51:23.565Z,99.90
2017-11-11T18:53:51.815Z,99.90
2017-11-11T18:56:20.112Z,99.90
2017-11-11T18:58:49.131Z,99.90
2017-11-11T19:01:17.392Z,99.90
2017-11-11T19:03:46.433Z,99.90
2017-11-11T19:06:14.702Z,99.90
2017-11-11T19:08:42.949Z,99.90
2017-11-11T19:11:11.977Z,99.90
2017-11-11T19:13:40.223Z,99.90
2017-11-11T19:16:09.557Z,99.90
2017-11-11T19:18:38.579Z,99.90
2017-11-11T19:21:06.817Z,99.90
2017-11-11T19:23:35.841Z,99.90
2017-11-11T19:26:04.166Z,99.90
2017-11-11T19:28:32.392Z,99.50
2017-11-11T19:31:00.668Z,99.90
2017-11-11T19:33:28.920Z,99.90
2017-11-11T19:35:57.190Z,99.90
2017-11-11T19:38:25.425Z,99.90
2017-11-11T19:40:53.687Z,99.80
2017-11-11T19:43:22.136Z,99.90
2017-11-11T19:45:50.370Z,99.60
2017-11-11T19:48:18.610Z,99.70
2017-11-11T19:50:46.877Z,99.60
2017-11-11T19:53:16.625Z,99.30
2017-11-11T19:55:45.772Z,99.30
2017-11-11T19:58:14.003Z,99.20
2017-11-11T20:00:43.050Z,99.10
2017-11-11T20:03:11.308Z,99.10
2017-11-11T20:05:39.630Z,99.10
2017-11-11T20:08:07.880Z,99.20
2017-11-11T20:10:36.145Z,99.20
2017-11-11T20:13:04.376Z,99.20
2017-11-11T20:15:32.631Z,99.10
2017-11-11T20:18:00.897Z,99.20
2017-11-11T20:20:29.193Z,99.00
2017-11-11T20:22:57.438Z,99.10
2017-11-11T20:25:25.720Z,99.10
2017-11-11T20:27:53.968Z,98.80
2017-11-11T20:30:22.242Z,98.70
2017-11-11T20:32:50.487Z,98.60
2017-11-11T20:35:18.768Z,98.70
2017-11-11T20:37:47.249Z,98.60
2017-11-11T20:40:15.515Z,98.50
2017-11-11T20:42:43.821Z,98.40
2017-11-11T20:45:12.863Z,98.30
2017-11-11T20:47:41.141Z,98.30
2017-11-11T20:50:09.438Z,98.20
2017-11-11T20:52:37.940Z,97.30
2017-11-11T20:55:06.208Z,97.00
2017-11-11T20:57:34.460Z,97.10
2017-11-11T21:00:04.110Z,97.60
2017-11-11T21:02:32.357Z,97.60
2017-11-11T21:05:00.615Z,97.60
2017-11-11T21:07:29.629Z,97.50
2017-11-11T21:09:57.892Z,97.50
2017-11-11T21:12:26.884Z,97.00
2017-11-11T21:14:55.920Z,97.00
2017-11-11T21:17:24.185Z,97.10
2017-11-11T21:19:52.440Z,97.10
2017-11-11T21:22:21.482Z,97.20
2017-11-11T21:24:49.774Z,97.20
2017-11-11T21:27:18.020Z,97.30
2017-11-11T21:29:46.272Z,97.20
2017-11-11T21:32:15.281Z,97.60
2017-11-11T21:34:44.417Z,97.20
2017-11-11T21:37:12.685Z,97.20
2017-11-11T21:39:40.952Z,97.30
2017-11-11T21:42:09.184Z,97.40
2017-11-11T21:44:38.245Z,97.30
2017-11-11T21:47:06.531Z,97.20
2017-11-11T21:49:34.777Z,96.80
2017-11-11T21:52:03.808Z,96.90
2017-11-11T21:54:32.832Z,96.80
2017-11-11T21:57:01.097Z,97.00
2017-11-11T21:59:29.372Z,96.70
2017-11-11T22:01:57.632Z,96.90
2017-11-11T22:04:25.946Z,97.40
2017-11-11T22:06:54.206Z,97.70
2017-11-11T22:09:22.447Z,97.80
2017-11-11T22:11:51.489Z,97.80
2017-11-11T22:14:19.767Z,97.80
2017-11-11T22:16:48.032Z,97.80
2017-11-11T22:19:17.376Z,98.00
2017-11-11T22:21:45.656Z,98.00
2017-11-11T22:24:13.895Z,97.90
2017-11-11T22:26:43.027Z,97.70
2017-11-11T22:29:11.281Z,97.70
2017-11-11T22:31:39.553Z,97.90
2017-11-11T22:34:08.567Z,98.10
2017-11-11T22:36:36.845Z,98.10
2017-11-11T22:39:05.251Z,98.10
2017-11-11T22:41:33.505Z,98.00
2017-11-11T22:44:02.525Z,98.00
2017-11-11T22:46:30.822Z,98.00
2017-11-11T22:48:59.065Z,98.10
2017-11-11T22:51:28.085Z,98.30
2017-11-11T22:53:56.372Z,98.30
2017-11-11T22:56:24.672Z,98.20
2017-11-11T22:58:52.919Z,98.20
2017-11-11T23:01:21.172Z,98.20
2017-11-11T23:03:50.188Z,98.20
2017-11-11T23:06:19.219Z,98.10
2017-11-11T23:08:47.472Z,98.10
2017-11-11T23:11:16.488Z,98.20
2017-11-11T23:13:44.736Z,98.20
2017-11-11T23:16:13.063Z,98.30
2017-11-11T23:18:41.307Z,98.30
2017-11-11T23:21:09.575Z,98.30
2017-11-11T23:23:38.630Z,98.40
2017-11-11T23:26:06.912Z,98.40
2017-11-11T23:28:35.160Z,98.50
2017-11-11T23:31:03.493Z,98.60
2017-11-11T23:33:31.732Z,98.60
2017-11-11T23:35:59.994Z,98.70
2017-11-11T23:38:29.003Z,98.70
2017-11-11T23:40:57.316Z,98.70
2017-11-11T23:43:25.563Z,98.60
2017-11-11T23:45:53.808Z,98.50
2017-11-11T23:48:22.057Z,98.50
2017-11-11T23:50:50.315Z,98.60
2017-11-11T23:53:18.563Z,98.60
2017-11-11T23:55:47.615Z,98.70
2017-11-11T23:58:15.890Z,98.70
